Aviation Digital Data Service (ADDS)

Output produced by METARs form (2324 UTC 23 March 2019)
found at http://www.aviationweather.gov/metar/data/
 
Forecast for: VVTS (HO CHI MINH/TANS, VN)
Text: TAF VVTS 231700Z 2318/2424 12010KT 9999 SCT017 SCT040
Forecast period: 1800 UTC 23 March 2019 to 0000 UTC 25 March 2019
Forecast type: FROM: standard forecast or significant change
Winds: from the ESE (120 degrees) at 12 MPH (10 knots; 5.1 m/s)
Visibility: 6 or more miles 10+ km)
Ceiling: at least 12,000 feet AGL
Clouds: scattered clouds at 1700 feet AGL
scattered clouds at 4000 feet AGL
Weather: no significant weather forecast for this period